Pagrindinis puslapis
METAR-TAF:

METAR-TAF

Oro uostai :

Westerland, Vokietija

platuma: 54-55N, ilguma: 008-21E, Aukštis: 16 m

Dabartinis oras

Ataskaita buvo paskelbta 16 minutes, ne 01:20 UTC
Vėjas 12 kt iš Pietų/Pietvakarių
Temperatūra 4°C
Drėgmė 81%
Slėgis 1017 hPa
Matomumas 10 km arba daugiau

METAR: EDXW 280120Z AUTO 20012KT 9999 // OVC017/// 04/01 Q1017

Laikas: 02:36 (01:36 UTC)

Prognozė

Ataskaita buvo paskelbta 11 valandos ir 36 minutes, ne 14:00 UTC
Prognozė galioja nuo 27 metu 15 UTC su 27 metu 18 UTC
Vėjas 4 kt iš Vakarų/Pietvakarių
Matomumas 10 km arba daugiau
Su prošvaistėmis ne aukštis 1200 ft
Laikinai
nuo 27 metu 15 UTC su 27 metu 18 UTC
Su prošvaistėmis ne aukštis 800 ft

TAF: EDXW 271400Z 2715/2718 24004KT 9999 BKN012 TEMPO 2715/2718 BKN008

Orai ataskaitas ir orų prognozės (METAR, TAF).

turimą stotys yra geltonos ir raudonos taškus žemėlapyje.

Perkelti pele per norėdami pamatyti stoties vardą.

Tada spustelėkite, norėdami matyti oro stebėjimo ir prognozės.

Norėdami pakeisti žemėlapį: spustelėkite ant žalios mygtukų su juodo kryžiaus žemyn,; žalią mygtuką su brūkšneliu, jei norite nutolinti; arba žalių rodyklių gretimoms žemėlapius.


METAR-TAF: